Impacts METAR Board
IDs:

KMSP - Minneapolis-St Paul, MN, US

Updated at: 0200 UTC 23 Sep 2018
Potential Impact None Slight Moderate High
Time 22/14Z 22/15Z 22/16Z 22/17Z 22/18Z 22/19Z 22/20Z 22/21Z 22/22Z 22/23Z 23/00Z 23/01Z 23/02Z
Temp51 54 57 59 61 63 65 66 67 67 65 61 62
Dewpt42 41 40 39 40 42 44 44 46 46 47 48 48
Altim30.30 30.29 30.28 30.25 30.22 30.18 30.15 30.12 30.10 30.08 30.07 30.05 30.06
VIS10 10 10 10 10 10 10 10 10 10 10 10 10
CIG-- -- -- -- -- -- -- -- -- -- -- -- --
CoverFEWFEWFEWFEWFEWFEWSCTSCTSCTSCTSCTSCTSCT
FltCatVFRVFRVFRVFRVFRVFRVFRVFRVFRVFRVFRVFRVFR
WX--------------------------
WDir180170170180190190190210180170170150160
WSpd6 9 14 12 10 14 8 10 10 13 10 8 8
WGst-- -- -- -- -- 20 16 18 -- -- -- -- --
Raw hourly METARs
KMSP 221353Z 18006KT 10SM FEW250 11/06 A3030 RMK AO2 SLP263 T01060056
KMSP 221453Z 17009KT 10SM FEW250 12/05 A3029 RMK AO2 SLP260 T01220050 58005
KMSP 221553Z 17014KT 10SM FEW250 14/04 A3028 RMK AO2 SLP258 T01390044
KMSP 221653Z 18012KT 10SM FEW250 15/04 A3025 RMK AO2 SLP247 T01500039
KMSP 221753Z 19010KT 10SM FEW250 16/04 A3022 RMK AO2 SLP236 T01610044 10161 20083 58023
KMSP 221853Z 19014G20KT 10SM FEW250 17/06 A3018 RMK AO2 SLP223 T01720056
KMSP 221953Z 19008G16KT 10SM SCT250 18/07 A3015 RMK AO2 SLP210 T01830067
KMSP 222053Z 21010G18KT 10SM SCT250 19/07 A3012 RMK AO2 SLP200 T01890067 56034
KMSP 222153Z 18010KT 10SM FEW150 SCT250 19/08 A3010 RMK AO2 SLP193 T01940078
KMSP 222253Z 17013KT 10SM FEW150 SCT250 19/08 A3008 RMK AO2 SLP186 T01940078
KMSP 222353Z 17010KT 10SM FEW150 SCT250 18/08 A3007 RMK AO2 SLP185 T01830083 10194 20161 56015
KMSP 230053Z 15008KT 10SM SCT250 16/09 A3005 RMK AO2 SLP179 T01610089
KMSP 230153Z 16008KT 10SM SCT250 17/09 A3006 RMK AO2 SLP180 T01670089



Page loaded:  02:08 UTC  |   07:08 PM Pacific  |   08:08 PM Mountain  |   09:08 PM Central  |   10:08 PM Eastern

 

ADVISORIES

FORECASTS

FORECASTS

OBSERVATIONS

USER TOOLS

ABOUT US